High Level Airport
CYOJ : now visible

Airfield :











YOU CAN JOIN US ON...

 
LOGIN :

Register | Disclaimer

   EN    FR    IT 

 









Legend :    VFR   Marginal VFR   IFR   Intensive IFR   Very Intensive IFR
Visi :
Ceiling :
>= 8 km
>= 3000ft
5 to 8 km
1000 to 3000 ft
1500m to 5 km
500 to 1000 ft
800 to 1500m
200 to 500 ft
< 800m
< 200 ft
Symbols :   Thunderstorms  Fog  Heavy snow  Heavy precipitations  Wind > 20 kt






- Airport Elevation : 1110 ft
- IATA code : YOJ


CYOJ - High Level

CURRENT METAR :
  • 110950Z AUTO 00000KT 1SM BR CLR 11/11 A2982 RMK SLP106

EXPIRED METARs :
  • 110928Z AUTO 00000KT 1SM BR CLR 11/11 A2982 RMK SLP107
  • 110923Z AUTO 00000KT 4SM BR CLR 11/11 A2982 RMK SLP106
  • 110904Z AUTO 00000KT 7SM CLR 12/12 A2982 RMK SLP107
  • 110857Z AUTO 00000KT 2 1/2SM BR CLR 11/11 A2982 RMK VIS VRB 1-3 SLP108
  • 110831Z AUTO 08003KT 1/2SM FG SCT002 12/12 A2982 RMK SLP108
  • 110816Z AUTO 00000KT 1SM BR CLR 11/11 A2983 RMK SLP110
  • 110815Z AUTO 00000KT 1 1/2SM BR CLR 12/11 A2983 RMK SLP110
  • 110759Z AUTO VRB02KT 6SM BR CLR 12/12 A2983 RMK SLP111
  • 110756Z AUTO VRB02KT 3SM BR CLR 13/13 A2983 RMK SLP111
  • 110739Z AUTO 00000KT 4SM BR CLR 13/13 A2983 RMK SLP110 DENSITY ALT 1200FT
  • 110732Z AUTO 00000KT 1 1/4SM BR CLR 13/13 A2983 RMK SLP111 DENSITY ALT 1200FT
  • 110718Z AUTO 00000KT 1SM BR CLR 13/13 A2983 RMK VIS VRB 5/8-3 SLP111 DENSITY ALT 1200FT
  • 110708Z AUTO 00000KT 6SM BR CLR 13/13 A2983 RMK SLP111 DENSITY ALT 1200FT
  • 110657Z AUTO 00000KT 4SM BR CLR 13/13 A2983 RMK SLP110 DENSITY ALT 1200FT

TAF AMD TAF CYOJ
Valid from the 11 at 08:00 until the 11 at 19:00 UTC


110847Z 1108/1119 00000KT 1/2SM FG BKN002
TEMPO 1108/1113 21/2SM BR SCT002
FM111300 VRB03KT 11/2SM BR SCT004
TEMPO 1113/1115 4SM BR
FM111500 18005KT P6SM SCT160 BKN240
TEMPO 1115/1117 4SM BR
PROB30 1115/1117 1SM BR RMK FCST BASED ON AUTO OBS. NXT FCST BY 111300Z
CZEG FIR / North America



MET'MAP, your aeronautical weather chart ! - Copyright ORBIFLY December 2007 - Disclaimer

ORBIFLY MET'MAP TEAM :

Programming & Development : Alexandra Zaïnal
Concept & original design : Baudouin d'Aumeries
Assistance for programming : Marc-Olivier Méhu
Technical & hardware support : Manuel Goepfert

Contact : metmap@orbifly.com




SOURCES & CREDITS :

   NOAA       Earth
Advisory